Ardmore, South Dakota
Current Conditions -  °F | °C
As of 3:33 PM on Monday 24 Nov 2014 (Local Time) from KCUT Reporting Station
Moderate Snow Moderate Snow  
Wind Chill: 16°   Ceiling: 1400
Heat Index: 26°   Visibility: 0.5mi
Dew Point: 21°   Wind: 12mph
Humidity: 81%   Direction: 360°N
Pressure: 29.96"   Gusts: 18mph
Location:  43.1994°N, 103.759°W
Report Text: KCUT 242233Z AUTO 36010G16KT 1/2SM SN FEW009 OVC014 M03/M06 A2996 RMK AO2 P0001 T10331061
Loading
Personal Weather Stations






























Interactive Weather Map New forecast layout! Learn more

10-Day Weather Forecast

Advertisements
Track Severe Weather on mobile